Time;durP1;ratioP1;P1;durP2;ratioP2;P2;SDS_P1;SDS_P2;PMS_P1;PMS_P2;Temp;Humidity;BMP_temperature;BMP_pressure;BME280_temperature;BME280_humidity;BME280_pressure;Samples;Min_cycle;Max_cycle;Signal;HPM_P1;HPM_P2
2022/03/15 00:01:20;;;;;;;7.80;6.30;;;8.30;99.90;;;;;;5033936;28;20458;-68
2022/03/15 00:03:46;;;;;;;16.07;7.07;;;8.30;99.90;;;;;;5034633;28;20398;-66
2022/03/15 00:06:12;;;;;;;10.27;6.10;;;8.30;99.90;;;;;;5034187;28;20403;-66
2022/03/15 00:08:37;;;;;;;12.17;7.30;;;8.30;99.90;;;;;;5034197;28;20884;-65
2022/03/15 00:11:05;;;;;;;14.17;6.83;;;8.30;99.90;;;;;;5033949;28;20736;-66
2022/03/15 00:13:32;;;;;;;8.70;5.60;;;8.20;99.90;;;;;;5034095;28;20168;-66
2022/03/15 00:16:00;;;;;;;11.87;6.97;;;8.20;99.90;;;;;;5033872;28;20763;-66
2022/03/15 00:18:27;;;;;;;13.53;7.60;;;8.20;99.90;;;;;;5034360;28;20411;-66
2022/03/15 00:20:53;;;;;;;10.20;7.80;;;8.20;99.90;;;;;;5034023;28;20439;-66
2022/03/15 00:23:18;;;;;;;11.80;5.50;;;8.20;99.90;;;;;;5033617;28;20577;-66
2022/03/15 00:25:44;;;;;;;9.17;5.83;;;8.20;99.90;;;;;;5033777;28;20537;-68
2022/03/15 00:28:09;;;;;;;9.27;6.50;;;8.20;99.90;;;;;;5033650;28;20172;-66
2022/03/15 00:30:34;;;;;;;9.67;6.03;;;8.10;99.90;;;;;;5033329;28;20168;-66
2022/03/15 00:33:00;;;;;;;12.90;7.17;;;8.10;99.90;;;;;;5033799;28;20259;-67
2022/03/15 00:35:25;;;;;;;13.13;7.27;;;8.10;99.90;;;;;;5033153;28;20210;-66
2022/03/15 00:37:53;;;;;;;8.27;5.93;;;8.00;99.90;;;;;;5033343;28;20203;-66
2022/03/15 00:40:20;;;;;;;8.63;6.47;;;8.00;99.90;;;;;;5033242;28;20171;-66
2022/03/15 00:42:50;;;;;;;8.63;6.10;;;8.00;99.90;;;;;;5033017;28;21037;-66
2022/03/15 00:45:16;;;;;;;8.97;6.50;;;8.00;99.90;;;;;;5033268;28;20724;-66
2022/03/15 00:47:42;;;;;;;9.90;6.20;;;8.00;99.90;;;;;;5033428;28;20438;-66
2022/03/15 00:50:08;;;;;;;12.17;6.50;;;7.90;99.90;;;;;;5032570;28;20430;-66
2022/03/15 00:52:34;;;;;;;10.23;6.50;;;7.90;99.90;;;;;;5033109;28;20196;-66
2022/03/15 00:55:00;;;;;;;10.63;6.10;;;7.90;99.90;;;;;;5033038;28;20484;-66
2022/03/15 00:57:25;;;;;;;9.90;6.37;;;7.90;99.90;;;;;;5033193;28;20171;-66
2022/03/15 00:59:51;;;;;;;10.23;5.53;;;7.90;99.90;;;;;;5033065;28;20410;-66
2022/03/15 01:02:16;;;;;;;9.07;5.53;;;7.90;99.90;;;;;;5032980;28;20561;-66
2022/03/15 01:04:42;;;;;;;11.93;6.07;;;7.90;99.90;;;;;;5033563;28;20172;-66
2022/03/15 01:07:07;;;;;;;11.27;7.40;;;8.00;99.90;;;;;;5033720;28;20616;-66
2022/03/15 01:09:34;;;;;;;12.53;7.27;;;8.00;99.90;;;;;;5032669;28;20191;-66
2022/03/15 01:12:00;;;;;;;7.70;5.37;;;8.00;99.90;;;;;;5030308;28;20655;-66
2022/03/15 01:14:27;;;;;;;12.30;6.37;;;8.00;99.90;;;;;;5031407;28;20426;-66
2022/03/15 01:16:54;;;;;;;7.30;5.47;;;8.00;99.90;;;;;;5033646;28;20198;-66
2022/03/15 01:19:20;;;;;;;9.40;5.40;;;8.00;99.90;;;;;;5032001;28;20433;-67
2022/03/15 01:21:45;;;;;;;9.10;6.87;;;7.90;99.90;;;;;;5031327;28;20541;-65
2022/03/15 01:24:11;;;;;;;17.90;6.87;;;7.90;99.90;;;;;;5031608;28;20171;-67
2022/03/15 01:26:37;;;;;;;13.30;7.83;;;7.80;99.90;;;;;;5031455;28;20610;-67
2022/03/15 01:29:03;;;;;;;13.33;5.83;;;7.80;99.90;;;;;;5034027;28;20187;-67
2022/03/15 01:31:28;;;;;;;9.10;5.47;;;7.70;99.90;;;;;;5031746;28;20899;-67
2022/03/15 01:33:54;;;;;;;10.40;6.33;;;7.70;99.90;;;;;;5031617;28;20778;-67
2022/03/15 01:36:20;;;;;;;9.83;6.30;;;7.70;99.90;;;;;;5031443;28;20669;-68
2022/03/15 01:38:45;;;;;;;6.67;4.27;;;7.60;99.90;;;;;;5031829;28;20430;-67
2022/03/15 01:41:11;;;;;;;19.20;6.00;;;7.60;99.90;;;;;;5031934;28;20290;-65
2022/03/15 01:43:39;;;;;;;10.80;4.43;;;7.60;99.90;;;;;;5032235;28;20176;-67
2022/03/15 01:46:05;;;;;;;11.47;5.90;;;7.60;99.90;;;;;;5032080;28;20172;-66
2022/03/15 01:48:31;;;;;;;7.13;5.30;;;7.60;99.90;;;;;;5032011;28;20410;-66
2022/03/15 01:50:56;;;;;;;10.40;6.90;;;7.50;99.90;;;;;;5032208;28;20607;-66
2022/03/15 01:53:22;;;;;;;10.50;7.03;;;7.50;99.90;;;;;;5032006;28;20193;-66
2022/03/15 01:55:49;;;;;;;6.80;5.40;;;7.40;99.90;;;;;;5031926;28;20221;-66
2022/03/15 01:58:14;;;;;;;11.40;6.60;;;7.40;99.90;;;;;;5032796;28;20175;-66
2022/03/15 02:00:39;;;;;;;9.57;6.23;;;7.40;99.90;;;;;;5031777;28;20406;-66
2022/03/15 02:03:05;;;;;;;10.70;7.27;;;7.40;99.90;;;;;;5030336;28;20708;-66
2022/03/15 02:05:31;;;;;;;13.10;5.70;;;7.40;99.90;;;;;;5031768;28;20167;-66
2022/03/15 02:07:56;;;;;;;8.27;5.90;;;7.50;99.90;;;;;;5032887;28;20919;-66
2022/03/15 02:10:23;;;;;;;10.83;6.47;;;7.50;99.90;;;;;;5031578;28;20187;-66
2022/03/15 02:12:49;;;;;;;14.07;6.73;;;7.50;99.90;;;;;;5031650;28;20279;-67
2022/03/15 02:15:14;;;;;;;15.80;6.90;;;7.60;99.90;;;;;;5031641;28;20505;-66
2022/03/15 02:17:40;;;;;;;8.73;5.40;;;7.60;99.90;;;;;;5031569;28;20402;-66
2022/03/15 02:20:07;;;;;;;11.30;7.47;;;7.60;99.90;;;;;;5031645;28;20172;-66
2022/03/15 02:22:34;;;;;;;11.33;7.00;;;7.60;99.90;;;;;;5031681;28;20558;-66
2022/03/15 02:25:00;;;;;;;11.50;6.40;;;7.60;99.90;;;;;;5031788;28;20403;-66
2022/03/15 02:27:26;;;;;;;9.63;6.00;;;7.60;99.90;;;;;;5031874;28;20497;-66
2022/03/15 02:29:51;;;;;;;11.60;6.70;;;7.60;99.90;;;;;;5032044;28;20541;-67
2022/03/15 02:32:17;;;;;;;11.07;6.33;;;7.60;99.90;;;;;;5031474;28;20210;-66
2022/03/15 02:34:42;;;;;;;14.13;7.87;;;7.60;99.90;;;;;;5031775;28;20494;-67
2022/03/15 02:37:08;;;;;;;15.13;8.40;;;7.50;99.90;;;;;;5031433;28;20592;-67
2022/03/15 02:39:34;;;;;;;13.80;5.40;;;7.50;99.90;;;;;;5031568;28;20602;-67
2022/03/15 02:42:00;;;;;;;12.47;6.80;;;7.50;99.90;;;;;;5030897;28;20543;-66
2022/03/15 02:44:25;;;;;;;14.10;6.80;;;7.50;99.90;;;;;;5031011;28;20544;-66
2022/03/15 02:46:51;;;;;;;10.20;6.90;;;7.50;99.90;;;;;;5031561;28;20218;-66
2022/03/15 02:49:17;;;;;;;11.53;5.60;;;7.50;99.90;;;;;;5031236;28;20637;-66
2022/03/15 02:51:43;;;;;;;9.20;5.50;;;7.50;99.90;;;;;;5031400;28;20696;-66
2022/03/15 02:54:13;;;;;;;6.90;4.40;;;7.60;99.90;;;;;;5031343;28;20411;-67
2022/03/15 02:56:42;;;;;;;11.17;7.10;;;7.60;99.90;;;;;;5031442;28;20610;-67
2022/03/15 02:59:08;;;;;;;14.50;7.47;;;7.60;99.90;;;;;;5031440;28;20414;-67
2022/03/15 03:01:34;;;;;;;9.53;5.90;;;7.60;99.90;;;;;;5031155;28;20469;-67
2022/03/15 03:03:59;;;;;;;12.20;6.97;;;7.60;99.90;;;;;;5031256;28;20410;-67
2022/03/15 03:06:25;;;;;;;9.40;5.90;;;7.60;99.90;;;;;;5031114;28;20168;-67
2022/03/15 03:08:51;;;;;;;12.77;6.70;;;7.60;99.90;;;;;;5031365;28;20172;-68
2022/03/15 03:11:16;;;;;;;8.93;6.30;;;7.60;99.90;;;;;;5031169;28;20264;-67
2022/03/15 03:13:44;;;;;;;9.50;5.67;;;7.50;99.90;;;;;;5032994;28;20247;-66
2022/03/15 03:16:12;;;;;;;14.10;7.57;;;7.50;99.90;;;;;;5035431;28;20168;-67
2022/03/15 03:18:37;;;;;;;10.60;6.30;;;7.50;99.90;;;;;;5035465;28;20897;-66
2022/03/15 03:21:05;;;;;;;10.30;6.90;;;7.50;99.90;;;;;;5035422;28;20484;-68
2022/03/15 03:23:34;;;;;;;9.97;6.70;;;7.40;99.90;;;;;;5034956;28;20199;-67
2022/03/15 03:26:01;;;;;;;14.90;7.80;;;7.40;99.90;;;;;;5034412;28;20410;-67
2022/03/15 03:28:30;;;;;;;17.00;7.10;;;7.40;99.90;;;;;;5034744;28;20787;-67
2022/03/15 03:30:56;;;;;;;11.17;6.37;;;7.30;99.90;;;;;;5034790;28;20428;-67
2022/03/15 03:33:22;;;;;;;12.90;6.00;;;7.30;99.90;;;;;;5034535;28;20410;-66
2022/03/15 03:35:50;;;;;;;9.97;6.67;;;7.40;99.90;;;;;;5034554;28;20195;-66
2022/03/15 03:38:17;;;;;;;14.23;7.73;;;7.40;99.90;;;;;;5034776;28;20522;-66
2022/03/15 03:40:42;;;;;;;10.90;6.37;;;7.40;99.90;;;;;;5034291;28;21276;-66
2022/03/15 03:43:08;;;;;;;14.40;8.07;;;7.30;99.90;;;;;;5034250;28;20532;-66
2022/03/15 03:45:36;;;;;;;10.10;7.00;;;7.30;99.90;;;;;;5034444;28;20179;-66
2022/03/15 03:48:01;;;;;;;15.07;7.93;;;7.20;99.90;;;;;;5034333;28;20199;-66
2022/03/15 03:50:27;;;;;;;19.93;7.97;;;7.10;99.90;;;;;;5034225;28;20415;-66
2022/03/15 03:52:52;;;;;;;12.10;8.53;;;7.10;99.90;;;;;;5034324;28;20203;-66
2022/03/15 03:55:18;;;;;;;11.60;6.23;;;7.00;99.90;;;;;;5034128;28;20201;-66
2022/03/15 03:57:43;;;;;;;9.53;6.00;;;7.00;99.90;;;;;;5034091;28;20172;-66
2022/03/15 04:00:09;;;;;;;12.03;7.53;;;7.00;99.90;;;;;;5034076;28;20257;-66
2022/03/15 04:02:35;;;;;;;13.97;7.00;;;6.90;99.90;;;;;;5033815;28;20207;-65
2022/03/15 04:05:00;;;;;;;13.30;6.87;;;6.90;99.90;;;;;;5034026;28;20413;-66
2022/03/15 04:07:28;;;;;;;10.90;6.73;;;6.90;99.90;;;;;;5034299;28;20168;-67
2022/03/15 04:09:54;;;;;;;12.00;6.10;;;6.80;99.90;;;;;;5030762;28;20179;-67
2022/03/15 04:12:22;;;;;;;11.13;6.70;;;6.80;99.90;;;;;;5033994;28;20426;-66
2022/03/15 04:14:48;;;;;;;12.57;6.23;;;6.80;99.90;;;;;;5034137;28;20476;-66
2022/03/15 04:17:14;;;;;;;15.47;7.27;;;6.80;99.90;;;;;;5033853;28;20430;-66
2022/03/15 04:19:40;;;;;;;10.90;6.83;;;6.80;99.90;;;;;;5034392;28;20823;-66
2022/03/15 04:22:06;;;;;;;11.73;8.10;;;6.70;99.90;;;;;;5033469;28;20536;-66
2022/03/15 04:24:32;;;;;;;9.57;5.97;;;6.70;99.90;;;;;;5033009;28;20202;-68
2022/03/15 04:26:59;;;;;;;14.40;8.30;;;6.70;99.90;;;;;;5033540;28;20672;-66
2022/03/15 04:29:28;;;;;;;14.33;7.70;;;6.60;99.90;;;;;;5034053;28;20407;-66
2022/03/15 04:31:53;;;;;;;10.40;6.17;;;6.60;99.90;;;;;;5033653;28;20430;-67
2022/03/15 04:34:19;;;;;;;13.00;8.57;;;6.50;99.90;;;;;;5033595;28;20517;-65
2022/03/15 04:36:45;;;;;;;12.53;6.57;;;6.50;99.90;;;;;;5033362;28;20175;-67
2022/03/15 04:39:13;;;;;;;11.40;6.47;;;6.40;99.90;;;;;;5034058;28;20230;-67
2022/03/15 04:41:39;;;;;;;14.23;8.37;;;6.40;99.90;;;;;;5033097;28;20484;-67
2022/03/15 04:44:08;;;;;;;13.40;8.07;;;6.40;99.90;;;;;;5033495;28;20892;-66
2022/03/15 04:46:34;;;;;;;19.17;7.53;;;6.40;99.90;;;;;;5033073;28;20282;-66
2022/03/15 04:49:00;;;;;;;10.83;7.80;;;6.40;99.90;;;;;;5033267;28;20441;-66
2022/03/15 04:51:26;;;;;;;13.67;7.37;;;6.40;99.90;;;;;;5032656;28;20186;-66
2022/03/15 04:53:52;;;;;;;15.20;7.37;;;6.50;99.90;;;;;;5033227;28;20402;-67
2022/03/15 04:56:18;;;;;;;9.70;7.40;;;6.50;99.90;;;;;;5033821;28;20468;-66
2022/03/15 04:58:44;;;;;;;16.67;8.97;;;6.60;99.90;;;;;;5035195;28;20453;-67
2022/03/15 05:01:10;;;;;;;13.97;8.47;;;6.60;99.90;;;;;;5033837;28;20418;-67
2022/03/15 05:03:36;;;;;;;17.73;10.20;;;6.60;99.90;;;;;;5033611;28;20415;-67
2022/03/15 05:06:02;;;;;;;14.13;7.33;;;6.60;99.90;;;;;;5032991;28;20179;-67
2022/03/15 05:08:28;;;;;;;14.10;6.30;;;6.60;99.90;;;;;;5032822;28;20218;-67
2022/03/15 05:11:08;;;;;;;12.00;7.03;;;6.50;99.90;;;;;;5032646;28;20929;-67
2022/03/15 05:13:44;;;;;;;11.20;7.43;;;6.40;99.90;;;;;;5032620;28;20675;-66
2022/03/15 05:16:12;;;;;;;14.30;8.33;;;6.30;99.90;;;;;;5032947;28;20387;-66
2022/03/15 05:18:40;;;;;;;12.53;8.10;;;6.30;99.90;;;;;;5033656;28;20422;-68
2022/03/15 05:21:07;;;;;;;10.73;7.00;;;6.30;99.90;;;;;;5033424;28;20426;-66
2022/03/15 05:23:32;;;;;;;8.90;5.90;;;6.20;99.90;;;;;;5032812;28;20551;-66
2022/03/15 05:25:58;;;;;;;6.50;5.73;;;6.20;99.90;;;;;;5032554;28;20407;-66
2022/03/15 05:28:24;;;;;;;15.13;7.83;;;6.10;99.90;;;;;;5032779;28;20398;-66
2022/03/15 05:30:50;;;;;;;17.10;9.90;;;6.10;99.90;;;;;;5032253;28;20694;-66
2022/03/15 05:33:16;;;;;;;11.50;7.07;;;6.10;99.90;;;;;;5032234;28;20406;-67
2022/03/15 05:35:41;;;;;;;8.70;5.93;;;6.10;99.90;;;;;;5032286;28;20406;-66
2022/03/15 05:38:07;;;;;;;11.97;7.27;;;6.10;99.90;;;;;;5031998;28;20230;-66
2022/03/15 05:40:33;;;;;;;12.43;8.20;;;6.00;99.90;;;;;;5031989;28;20333;-67
2022/03/15 05:42:58;;;;;;;20.03;11.30;;;6.00;99.90;;;;;;5032096;28;20265;-67
2022/03/15 05:45:25;;;;;;;14.10;8.80;;;6.00;99.90;;;;;;5032030;28;20669;-67
2022/03/15 05:47:51;;;;;;;12.60;7.50;;;6.10;99.90;;;;;;5032383;28;20160;-66
2022/03/15 05:50:17;;;;;;;17.93;8.57;;;6.10;99.90;;;;;;5031976;28;20754;-67
2022/03/15 05:52:42;;;;;;;13.43;7.07;;;6.10;99.90;;;;;;5031746;28;20568;-68
2022/03/15 05:55:09;;;;;;;17.53;9.90;;;6.10;99.90;;;;;;5032052;28;20186;-67
2022/03/15 05:57:34;;;;;;;13.57;8.00;;;6.20;99.90;;;;;;5032692;28;20176;-67
2022/03/15 06:00:00;;;;;;;16.30;8.30;;;6.20;99.90;;;;;;5031536;28;20410;-67
2022/03/15 06:02:25;;;;;;;16.10;11.00;;;6.30;99.90;;;;;;5031376;28;20298;-68
2022/03/15 06:04:51;;;;;;;18.30;9.13;;;6.30;99.90;;;;;;5031711;28;20255;-67
2022/03/15 06:07:16;;;;;;;12.80;8.87;;;6.30;99.90;;;;;;5031578;28;20221;-67
2022/03/15 06:09:42;;;;;;;16.10;9.90;;;6.40;99.90;;;;;;5030873;28;20351;-68
2022/03/15 06:12:09;;;;;;;12.57;9.30;;;6.40;99.90;;;;;;5030338;28;20249;-68
2022/03/15 06:14:34;;;;;;;19.23;9.10;;;6.30;99.90;;;;;;5030121;28;20940;-67
2022/03/15 06:16:59;;;;;;;17.40;9.40;;;6.40;99.90;;;;;;5030670;28;20426;-68
2022/03/15 06:19:25;;;;;;;19.87;8.57;;;6.40;99.90;;;;;;5030624;28;20179;-67
2022/03/15 06:21:51;;;;;;;15.77;8.17;;;6.40;99.90;;;;;;5030277;28;20282;-67
2022/03/15 06:24:17;;;;;;;14.10;8.93;;;6.50;99.90;;;;;;5030539;28;20262;-67
2022/03/15 06:26:43;;;;;;;13.30;7.30;;;6.60;99.90;;;;;;5030098;28;20980;-67
2022/03/15 06:29:09;;;;;;;15.33;9.20;;;6.70;99.90;;;;;;5030097;28;20781;-67
2022/03/15 06:31:35;;;;;;;10.10;6.93;;;6.80;99.90;;;;;;5030888;28;20426;-67
2022/03/15 06:34:04;;;;;;;11.97;7.63;;;7.20;99.90;;;;;;5029924;28;20557;-68
2022/03/15 06:36:30;;;;;;;14.43;7.30;;;7.70;99.90;;;;;;5030021;28;20418;-67
2022/03/15 06:38:56;;;;;;;9.77;7.50;;;7.60;99.90;;;;;;5030077;28;20418;-67
2022/03/15 06:41:22;;;;;;;14.00;6.97;;;7.90;99.90;;;;;;5030523;28;20826;-66
2022/03/15 06:43:47;;;;;;;12.27;7.07;;;7.80;99.90;;;;;;5030693;28;20502;-66
2022/03/15 06:46:14;;;;;;;11.33;6.23;;;8.30;99.90;;;;;;5030920;28;20169;-67
2022/03/15 06:48:40;;;;;;;13.80;6.43;;;9.00;99.90;;;;;;5034518;28;20195;-67
2022/03/15 06:51:05;;;;;;;10.17;7.00;;;9.70;99.90;;;;;;5037270;28;20939;-67
2022/03/15 06:53:33;;;;;;;13.00;7.37;;;9.20;99.90;;;;;;5036928;28;20199;-68
2022/03/15 06:55:59;;;;;;;12.43;6.70;;;8.70;99.90;;;;;;5035573;28;20183;-67
2022/03/15 06:58:24;;;;;;;14.33;7.60;;;8.50;99.90;;;;;;5037109;28;20818;-67
2022/03/15 07:00:50;;;;;;;12.10;7.53;;;8.60;99.90;;;;;;5037148;28;20287;-67
2022/03/15 07:03:15;;;;;;;9.50;6.17;;;8.70;99.90;;;;;;5037271;28;20199;-68
2022/03/15 07:05:41;;;;;;;15.10;7.60;;;9.00;99.90;;;;;;5037366;28;20213;-67
2022/03/15 07:08:07;;;;;;;11.90;7.20;;;8.90;99.90;;;;;;5037241;28;20634;-67
2022/03/15 07:10:33;;;;;;;12.60;7.40;;;8.70;99.90;;;;;;5037388;28;20171;-70
2022/03/15 07:13:00;;;;;;;13.60;6.83;;;8.70;99.90;;;;;;5036765;28;20468;-67
2022/03/15 07:15:25;;;;;;;10.60;7.03;;;9.00;99.90;;;;;;5037432;28;20418;-66
2022/03/15 07:17:52;;;;;;;12.90;7.93;;;9.10;99.90;;;;;;5038109;28;20827;-66
2022/03/15 07:20:19;;;;;;;14.10;7.43;;;9.10;99.90;;;;;;5036928;28;20187;-68
2022/03/15 07:22:45;;;;;;;13.37;8.07;;;9.30;99.90;;;;;;5036927;28;20493;-66
2022/03/15 07:25:10;;;;;;;17.13;7.77;;;9.70;99.90;;;;;;5036735;28;20889;-67
2022/03/15 07:27:36;;;;;;;9.27;6.87;;;10.00;99.90;;;;;;5035902;28;20251;-67
2022/03/15 07:30:03;;;;;;;11.60;6.37;;;10.40;99.90;;;;;;5031905;28;20175;-67
2022/03/15 07:32:28;;;;;;;12.93;8.03;;;10.30;99.90;;;;;;5036810;28;20507;-68
2022/03/15 07:34:54;;;;;;;15.53;7.57;;;10.10;99.90;;;;;;5037130;28;20421;-68
2022/03/15 07:37:19;;;;;;;11.77;8.07;;;9.80;99.90;;;;;;5037234;28;20668;-68
2022/03/15 07:39:45;;;;;;;12.13;8.80;;;10.10;99.90;;;;;;5037236;28;20255;-69
2022/03/15 07:42:11;;;;;;;20.27;8.57;;;10.10;99.90;;;;;;5037309;28;20210;-68
2022/03/15 07:44:37;;;;;;;12.70;7.50;;;10.20;99.90;;;;;;5037012;28;20254;-69
2022/03/15 07:47:02;;;;;;;12.50;7.00;;;10.00;99.90;;;;;;5036947;28;20501;-66
2022/03/15 07:49:28;;;;;;;12.47;6.90;;;10.20;99.90;;;;;;5036991;28;20179;-67
2022/03/15 07:51:53;;;;;;;12.67;8.10;;;10.40;99.90;;;;;;5036703;28;20197;-67
2022/03/15 07:54:19;;;;;;;13.07;8.70;;;10.10;99.90;;;;;;5037138;28;20258;-67
2022/03/15 07:56:45;;;;;;;10.97;7.30;;;10.00;99.90;;;;;;5036854;28;20183;-67
2022/03/15 07:59:11;;;;;;;14.00;9.17;;;10.20;99.90;;;;;;5031894;28;20226;-66
2022/03/15 08:01:36;;;;;;;9.90;7.00;;;10.20;99.90;;;;;;5031934;28;20996;-66
2022/03/15 08:04:02;;;;;;;11.83;7.87;;;10.30;99.90;;;;;;5033084;28;20606;-67
2022/03/15 08:06:27;;;;;;;11.10;7.67;;;10.10;99.90;;;;;;5035742;28;20189;-68
2022/03/15 08:08:57;;;;;;;14.00;8.43;;;10.60;99.90;;;;;;5032909;28;20271;-68
2022/03/15 08:11:23;;;;;;;16.13;7.40;;;11.00;99.90;;;;;;5032475;28;20574;-68
2022/03/15 08:13:49;;;;;;;9.40;6.80;;;11.10;99.90;;;;;;5033095;28;20415;-66
2022/03/15 08:16:14;;;;;;;11.80;7.50;;;11.00;99.90;;;;;;5032923;28;20404;-68
2022/03/15 08:18:40;;;;;;;13.30;8.40;;;11.30;99.90;;;;;;5033020;28;20418;-69
2022/03/15 08:21:05;;;;;;;8.87;7.10;;;11.40;99.90;;;;;;5033406;28;20204;-67
2022/03/15 08:23:31;;;;;;;17.43;9.07;;;11.70;99.90;;;;;;5032727;28;20200;-67
2022/03/15 08:25:58;;;;;;;17.07;8.20;;;11.50;99.90;;;;;;5032722;28;20545;-66
2022/03/15 08:28:24;;;;;;;13.60;8.23;;;11.30;99.90;;;;;;5032931;28;20182;-66
2022/03/15 08:30:51;;;;;;;12.37;8.47;;;11.70;99.90;;;;;;5034902;28;20434;-66
2022/03/15 08:33:17;;;;;;;15.70;9.33;;;12.00;99.90;;;;;;5034594;28;20916;-66
2022/03/15 08:35:43;;;;;;;11.47;8.63;;;13.10;99.90;;;;;;5032553;28;20456;-68
2022/03/15 08:38:08;;;;;;;16.13;10.23;;;13.40;99.90;;;;;;5032688;28;20454;-66
2022/03/15 08:40:34;;;;;;;12.37;9.33;;;12.10;99.90;;;;;;5031980;28;20190;-67
2022/03/15 08:43:00;;;;;;;11.03;8.20;;;12.20;99.90;;;;;;5027145;28;20291;-66
2022/03/15 08:45:26;;;;;;;15.23;9.37;;;12.50;99.90;;;;;;5032355;28;20263;-66
2022/03/15 08:47:52;;;;;;;13.90;9.60;;;13.70;99.90;;;;;;5031900;28;20801;-66
2022/03/15 08:50:19;;;;;;;15.50;8.83;;;13.10;99.90;;;;;;5031265;28;20208;-65
2022/03/15 08:52:45;;;;;;;13.07;9.63;;;12.70;99.90;;;;;;5031811;28;20556;-65
2022/03/15 08:55:11;;;;;;;16.90;10.63;;;13.00;99.90;;;;;;5028738;28;20902;-65
2022/03/15 08:57:37;;;;;;;12.60;8.57;;;12.90;99.90;;;;;;5032571;28;20457;-67
2022/03/15 09:00:05;;;;;;;13.10;9.00;;;13.10;99.90;;;;;;5031806;28;20188;-67
2022/03/15 09:02:31;;;;;;;15.10;10.70;;;12.80;99.90;;;;;;5035076;28;20482;-68
2022/03/15 09:04:56;;;;;;;11.97;7.57;;;12.70;99.90;;;;;;5031395;28;20432;-66
2022/03/15 09:07:22;;;;;;;15.90;9.47;;;12.70;99.90;;;;;;5031681;28;20177;-67
2022/03/15 09:09:47;;;;;;;16.50;10.77;;;12.80;99.90;;;;;;5031068;28;20544;-67
2022/03/15 09:12:13;;;;;;;13.37;8.00;;;12.80;99.90;;;;;;5030817;28;20192;-66
2022/03/15 09:14:38;;;;;;;11.70;8.33;;;12.80;99.90;;;;;;5031572;28;20178;-66
2022/03/15 09:17:06;;;;;;;12.63;9.50;;;12.90;99.90;;;;;;5031601;28;20676;-66
2022/03/15 09:19:31;;;;;;;11.67;8.50;;;13.50;99.90;;;;;;5031722;28;20175;-66
2022/03/15 09:21:57;;;;;;;13.43;8.60;;;13.70;99.90;;;;;;5032119;28;21046;-66
2022/03/15 09:24:22;;;;;;;11.20;8.67;;;13.50;99.90;;;;;;5032249;28;20411;-68
2022/03/15 09:26:48;;;;;;;14.00;9.10;;;13.40;99.90;;;;;;5032261;28;20196;-67
2022/03/15 09:29:13;;;;;;;10.03;8.80;;;13.60;99.90;;;;;;5032015;28;20160;-67
2022/03/15 09:31:39;;;;;;;10.00;7.37;;;13.80;99.90;;;;;;5032433;28;20198;-68
2022/03/15 09:34:06;;;;;;;11.67;8.33;;;14.00;99.90;;;;;;5032771;28;20546;-67
2022/03/15 09:36:32;;;;;;;10.77;7.83;;;13.70;99.90;;;;;;5032464;28;20493;-68
2022/03/15 09:38:58;;;;;;;10.23;7.87;;;13.80;99.90;;;;;;5014897;28;20881;-68
2022/03/15 09:41:27;;;;;;;10.80;7.47;;;14.30;99.90;;;;;;5012072;28;20297;-67
2022/03/15 09:43:55;;;;;;;13.60;8.33;;;13.50;99.90;;;;;;5012383;28;20404;-68
2022/03/15 09:46:22;;;;;;;12.60;8.13;;;13.20;99.90;;;;;;5012756;28;20439;-67
2022/03/15 09:48:53;;;;;;;9.53;7.30;;;13.50;99.90;;;;;;5025000;28;20925;-67
2022/03/15 09:51:19;;;;;;;10.43;7.87;;;13.70;99.90;;;;;;5032208;28;20442;-67
2022/03/15 09:53:46;;;;;;;12.07;7.43;;;14.20;99.90;;;;;;5029106;28;20422;-68
2022/03/15 09:56:14;;;;;;;12.67;8.87;;;14.10;99.90;;;;;;5032472;28;20417;-69
2022/03/15 09:58:41;;;;;;;9.70;7.30;;;14.00;99.90;;;;;;5031700;28;20415;-68
2022/03/15 10:01:12;;;;;;;8.43;6.50;;;14.70;99.90;;;;;;5031728;28;20434;-69
2022/03/15 10:03:37;;;;;;;11.20;6.30;;;13.40;99.90;;;;;;5031507;28;20442;-66
2022/03/15 10:06:03;;;;;;;10.03;6.73;;;13.30;99.90;;;;;;5030786;28;20426;-67
2022/03/15 10:08:29;;;;;;;8.97;6.63;;;13.50;99.90;;;;;;5031302;28;20313;-66
2022/03/15 10:10:54;;;;;;;10.27;6.73;;;13.30;99.90;;;;;;5031365;28;20283;-67
2022/03/15 10:13:20;;;;;;;13.00;6.63;;;12.80;99.90;;;;;;5031671;28;20215;-67
2022/03/15 10:15:52;;;;;;;11.93;6.87;;;13.30;99.90;;;;;;5036804;28;20175;-68
2022/03/15 10:18:19;;;;;;;13.20;6.53;;;13.30;99.90;;;;;;5031564;28;20410;-68
2022/03/15 10:20:46;;;;;;;11.30;6.60;;;13.00;99.90;;;;;;5033727;28;20576;-70
2022/03/15 10:23:11;;;;;;;7.60;5.80;;;13.30;99.90;;;;;;5030389;28;20460;-70
2022/03/15 10:25:41;;;;;;;13.80;7.27;;;12.80;99.90;;;;;;5013371;28;20422;-67
2022/03/15 10:28:08;;;;;;;13.53;7.33;;;12.80;99.90;;;;;;5030889;28;20263;-66
2022/03/15 10:30:35;;;;;;;11.37;6.60;;;12.60;99.90;;;;;;5030759;28;20414;-66
2022/03/15 10:33:02;;;;;;;7.90;5.83;;;12.70;99.90;;;;;;5030354;28;20418;-65
2022/03/15 10:35:31;;;;;;;11.30;6.70;;;13.20;99.90;;;;;;5031268;28;20505;-70
2022/03/15 10:37:58;;;;;;;11.50;7.03;;;13.30;99.90;;;;;;5031179;28;20505;-66
2022/03/15 10:40:36;;;;;;;11.77;6.63;;;12.90;99.90;;;;;;5030957;28;20414;-67
2022/03/15 10:43:29;;;;;;;9.13;6.27;;;13.20;99.90;;;;;;5031042;28;20981;-67
2022/03/15 10:45:57;;;;;;;8.90;6.87;;;13.40;99.90;;;;;;5027381;28;20497;-69
2022/03/15 10:48:30;;;;;;;11.37;7.33;;;14.00;99.90;;;;;;5031236;28;20416;-65
2022/03/15 10:51:05;;;;;;;9.40;6.73;;;14.00;99.90;;;;;;5031265;28;20417;-67
2022/03/15 10:53:42;;;;;;;9.20;5.93;;;14.10;99.90;;;;;;5027936;28;20418;-66
2022/03/15 10:56:19;;;;;;;11.10;6.67;;;13.60;99.90;;;;;;5031277;28;20459;-68
2022/03/15 10:59:05;;;;;;;8.73;6.70;;;13.20;99.90;;;;;;5031373;28;20767;-65
2022/03/15 11:01:38;;;;;;;8.40;5.87;;;13.70;99.90;;;;;;5030907;28;20430;-67
2022/03/15 11:04:06;;;;;;;8.53;6.90;;;13.60;99.90;;;;;;5031642;28;20500;-71
2022/03/15 11:06:44;;;;;;;12.20;6.80;;;13.50;99.90;;;;;;5031320;28;20489;-68
2022/03/15 11:09:19;;;;;;;10.40;7.23;;;13.30;99.90;;;;;;5026002;28;20920;-66
2022/03/15 11:12:06;;;;;;;11.13;5.70;;;13.10;99.90;;;;;;5031373;28;20479;-69
2022/03/15 11:14:38;;;;;;;11.73;6.00;;;13.30;99.90;;;;;;5031033;28;20415;-67
2022/03/15 11:17:13;;;;;;;14.27;6.07;;;13.10;99.90;;;;;;5030919;28;20492;-66
2022/03/15 11:19:46;;;;;;;12.33;6.90;;;13.00;99.90;;;;;;5030602;28;20437;-66
2022/03/15 11:22:13;;;;;;;9.30;5.60;;;13.30;99.90;;;;;;5042360;28;20514;-68
2022/03/15 11:24:43;;;;;;;12.43;6.10;;;13.10;99.90;;;;;;5040270;28;20472;-68
2022/03/15 11:27:14;;;;;;;11.53;7.00;;;13.30;99.90;;;;;;5031721;28;20414;-65
2022/03/15 11:29:42;;;;;;;7.03;5.10;;;13.70;99.90;;;;;;5030663;28;20509;-66
2022/03/15 11:32:10;;;;;;;12.03;6.47;;;13.60;99.90;;;;;;5030650;28;20438;-66
2022/03/15 11:34:39;;;;;;;10.10;5.53;;;13.40;99.90;;;;;;5031985;28;20414;-65
2022/03/15 11:37:05;;;;;;;8.30;6.27;;;13.40;99.90;;;;;;5034349;28;20417;-65
2022/03/15 11:39:31;;;;;;;11.97;5.73;;;13.60;99.90;;;;;;5023701;28;20737;-67
2022/03/15 11:41:58;;;;;;;8.90;5.20;;;13.70;99.90;;;;;;5033571;28;20477;-66
2022/03/15 11:44:38;;;;;;;8.83;6.30;;;13.50;99.90;;;;;;5033782;28;20945;-66
2022/03/15 11:47:21;;;;;;;9.10;5.60;;;13.40;99.90;;;;;;5020608;28;20441;-67
2022/03/15 11:49:58;;;;;;;11.10;5.60;;;13.20;99.90;;;;;;5033644;28;20413;-68
2022/03/15 11:53:01;;;;;;;7.77;5.50;;;13.20;99.90;;;;;;5027990;28;20429;-67
2022/03/15 11:55:56;;;;;;;8.90;5.50;;;13.40;99.90;;;;;;5026424;28;20809;-67
2022/03/15 11:58:24;;;;;;;11.30;6.90;;;13.30;99.90;;;;;;5032130;28;20411;-67
2022/03/15 12:00:50;;;;;;;9.43;6.17;;;13.70;99.90;;;;;;5033337;28;20738;-66
2022/03/15 12:03:18;;;;;;;8.17;5.10;;;14.00;99.90;;;;;;5033913;28;20450;-68
2022/03/15 12:05:51;;;;;;;13.83;6.30;;;13.90;99.90;;;;;;5032676;28;20235;-66
2022/03/15 12:08:20;;;;;;;9.50;6.07;;;13.60;99.90;;;;;;5033501;28;20413;-66
2022/03/15 12:11:03;;;;;;;8.40;6.03;;;13.80;99.90;;;;;;5033363;28;20782;-67
2022/03/15 12:13:45;;;;;;;9.50;5.77;;;13.80;99.90;;;;;;5033252;28;20523;-66
2022/03/15 12:16:15;;;;;;;8.90;6.00;;;13.80;99.90;;;;;;5033390;28;20407;-67
2022/03/15 12:18:48;;;;;;;10.20;5.27;;;13.80;99.90;;;;;;5033468;28;20402;-67
2022/03/15 12:21:15;;;;;;;10.20;6.63;;;13.90;99.90;;;;;;5032974;28;20430;-67
2022/03/15 12:23:46;;;;;;;10.10;7.00;;;14.10;99.90;;;;;;5032921;28;20494;-68
2022/03/15 12:26:30;;;;;;;8.00;5.70;;;13.90;99.90;;;;;;5033380;28;20421;-66
2022/03/15 12:29:03;;;;;;;8.10;6.10;;;13.90;99.90;;;;;;5033307;28;20807;-69
2022/03/15 12:31:38;;;;;;;7.77;5.83;;;14.10;99.90;;;;;;5033796;28;20484;-65
2022/03/15 12:34:10;;;;;;;10.43;5.47;;;13.90;99.90;;;;;;5034361;28;20414;-66
2022/03/15 12:36:40;;;;;;;15.50;7.20;;;14.10;99.90;;;;;;5033176;28;20406;-66
2022/03/15 12:39:10;;;;;;;10.03;6.07;;;13.90;99.90;;;;;;5033141;28;20460;-66
2022/03/15 12:41:35;;;;;;;8.90;6.60;;;13.80;99.90;;;;;;5032946;28;20437;-71
2022/03/15 12:44:00;;;;;;;12.00;6.27;;;13.90;99.90;;;;;;5033111;28;20433;-66
2022/03/15 12:46:30;;;;;;;12.43;7.00;;;13.60;99.90;;;;;;5032510;28;20693;-67